createdAt,value
2022-10-18T00:01:07.901Z,101779.69
2022-10-18T00:03:36.614Z,101787.78
2022-10-18T00:06:03.940Z,101787.44
2022-10-18T00:08:34.576Z,101791.28
2022-10-18T00:11:05.957Z,101787.69
2022-10-18T00:13:32.937Z,101795.88
2022-10-18T00:16:05.768Z,101798.53
2022-10-18T00:18:32.710Z,101803.78
2022-10-18T00:21:09.831Z,101804.53
2022-10-18T00:23:37.099Z,101808.13
2022-10-18T00:26:30.198Z,101797.41
2022-10-18T00:29:01.956Z,101797.16
2022-10-18T00:31:38.707Z,101807.97
2022-10-18T00:34:12.608Z,101810.22
2022-10-18T00:36:40.140Z,101810.88
2022-10-18T00:39:09.416Z,101816.00
2022-10-18T00:41:38.098Z,101817.97
2022-10-18T00:44:13.806Z,101820.06
2022-10-18T00:46:45.777Z,101816.00
2022-10-18T00:49:44.853Z,101821.59
2022-10-18T00:52:43.622Z,101823.03
2022-10-18T00:55:11.451Z,101825.66
2022-10-18T00:57:42.589Z,101819.88
2022-10-18T01:00:11.429Z,101825.16
2022-10-18T01:02:42.176Z,101824.06
2022-10-18T01:05:16.819Z,101825.22
2022-10-18T01:08:32.508Z,101824.56
2022-10-18T01:11:50.471Z,101826.84
2022-10-18T01:14:43.536Z,101826.06
2022-10-18T01:17:36.041Z,101840.09
2022-10-18T01:20:55.969Z,101841.31
2022-10-18T01:23:57.535Z,101834.13
2022-10-18T01:27:15.814Z,101828.34
2022-10-18T01:30:26.357Z,101824.41
2022-10-18T01:33:01.180Z,101823.97
2022-10-18T01:35:39.597Z,101819.00
2022-10-18T01:38:17.032Z,101818.75
2022-10-18T01:40:49.002Z,101809.72
2022-10-18T01:43:19.457Z,101803.97
2022-10-18T01:45:47.349Z,101805.91
2022-10-18T01:48:16.095Z,101810.56
2022-10-18T01:50:43.500Z,101810.94
2022-10-18T01:53:28.221Z,101825.13
2022-10-18T01:56:18.023Z,101821.50
2022-10-18T01:59:17.432Z,101829.28
2022-10-18T02:02:32.701Z,101830.44
2022-10-18T02:05:57.958Z,101807.47
2022-10-18T02:08:55.358Z,101815.38
2022-10-18T02:11:25.417Z,101819.56
2022-10-18T02:14:00.454Z,101813.88
2022-10-18T02:16:41.312Z,101819.47
2022-10-18T02:19:17.211Z,101821.25
2022-10-18T02:21:48.375Z,101814.53
2022-10-18T02:24:18.165Z,101812.75
2022-10-18T02:26:45.317Z,101804.63
2022-10-18T02:29:13.797Z,101804.44
2022-10-18T02:31:55.530Z,101803.97
2022-10-18T02:34:44.141Z,101807.78
2022-10-18T02:37:13.801Z,101810.34
2022-10-18T02:39:50.678Z,101811.19
2022-10-18T02:42:17.945Z,101806.44
2022-10-18T02:44:45.959Z,101807.72
2022-10-18T02:47:13.103Z,101819.56
2022-10-18T02:49:40.454Z,101814.78
2022-10-18T02:52:07.443Z,101826.78
2022-10-18T02:54:35.323Z,101833.22
2022-10-18T02:57:03.348Z,101834.69
2022-10-18T02:59:30.502Z,101839.84
2022-10-18T03:01:57.478Z,101830.41
2022-10-18T03:04:25.078Z,101832.97
2022-10-18T03:06:52.063Z,101833.56
2022-10-18T03:09:19.048Z,101835.47
2022-10-18T03:11:54.570Z,101833.50
2022-10-18T03:14:22.228Z,101840.94
2022-10-18T03:16:49.651Z,101840.72
2022-10-18T03:19:16.670Z,101846.47
2022-10-18T03:21:43.700Z,101844.75
2022-10-18T03:24:10.912Z,101845.25
2022-10-18T03:26:37.845Z,101858.94
2022-10-18T03:29:04.889Z,101859.69
2022-10-18T03:31:32.286Z,101857.63
2022-10-18T03:33:59.223Z,101861.28
2022-10-18T03:36:26.477Z,101866.16
2022-10-18T03:38:53.520Z,101857.09
2022-10-18T03:41:20.851Z,101868.44
2022-10-18T03:43:47.953Z,101872.34
2022-10-18T03:46:14.896Z,101866.09
2022-10-18T03:48:41.843Z,101856.59
2022-10-18T03:51:08.797Z,101856.44
2022-10-18T03:53:36.911Z,101846.94
2022-10-18T03:56:03.897Z,101844.00
2022-10-18T03:58:30.945Z,101840.00
2022-10-18T04:00:57.911Z,101852.25
2022-10-18T04:03:24.917Z,101855.16
2022-10-18T04:05:52.000Z,101859.25
2022-10-18T04:08:19.562Z,101853.84
2022-10-18T04:10:46.996Z,101859.31
2022-10-18T04:13:14.071Z,101842.75
2022-10-18T04:15:41.385Z,101859.38
2022-10-18T04:18:08.371Z,101851.97
2022-10-18T04:20:35.575Z,101859.63
2022-10-18T04:23:02.596Z,101856.84
2022-10-18T04:25:29.579Z,101865.56
2022-10-18T04:27:57.050Z,101862.81
2022-10-18T04:30:23.991Z,101863.19
2022-10-18T04:32:50.951Z,101859.72
2022-10-18T04:35:18.266Z,101868.06
2022-10-18T04:37:45.238Z,101857.38
2022-10-18T04:40:13.008Z,101859.38
2022-10-18T04:42:39.913Z,101867.41
2022-10-18T04:45:11.111Z,101866.63
2022-10-18T04:47:38.314Z,101860.13
2022-10-18T04:50:06.101Z,101855.06
2022-10-18T04:52:33.071Z,101854.75
2022-10-18T04:54:59.999Z,101852.13
2022-10-18T04:57:39.988Z,101851.75
2022-10-18T05:00:07.689Z,101846.44
2022-10-18T05:02:34.931Z,101846.13
2022-10-18T05:05:02.207Z,101845.25
2022-10-18T05:07:29.254Z,101850.72
2022-10-18T05:09:56.309Z,101853.78
2022-10-18T05:12:23.337Z,101849.34
2022-10-18T05:14:50.316Z,101848.03
2022-10-18T05:17:17.293Z,101857.25
2022-10-18T05:19:44.281Z,101852.13
2022-10-18T05:22:11.225Z,101853.31
2022-10-18T05:24:38.441Z,101849.59
2022-10-18T05:27:05.558Z,101849.72
2022-10-18T05:29:32.629Z,101840.19
2022-10-18T05:31:59.613Z,101830.34
2022-10-18T05:34:27.305Z,101823.56
2022-10-18T05:36:54.301Z,101827.75
2022-10-18T05:39:21.496Z,101836.38
2022-10-18T05:41:48.448Z,101834.09
2022-10-18T05:44:15.475Z,101849.31
2022-10-18T05:46:42.462Z,101843.84
2022-10-18T05:49:12.870Z,101837.13
2022-10-18T05:51:40.343Z,101841.19
2022-10-18T05:54:07.346Z,101842.16
2022-10-18T05:56:34.380Z,101843.75
2022-10-18T05:59:02.955Z,101852.00
2022-10-18T06:01:29.869Z,101851.16
2022-10-18T06:03:56.902Z,101850.78
2022-10-18T06:06:23.804Z,101853.97
2022-10-18T06:08:50.741Z,101860.09
2022-10-18T06:11:22.929Z,101850.66
2022-10-18T06:13:52.164Z,101862.63
2022-10-18T06:16:22.627Z,101851.97
2022-10-18T06:18:53.275Z,101853.38
2022-10-18T06:21:21.440Z,101847.31
2022-10-18T06:23:58.227Z,101848.47
2022-10-18T06:26:27.864Z,101844.25
2022-10-18T06:28:54.848Z,101839.81
2022-10-18T06:31:21.830Z,101840.03
2022-10-18T06:33:49.233Z,101842.06
2022-10-18T06:36:21.221Z,101847.97
2022-10-18T06:38:48.298Z,101844.03
2022-10-18T06:41:15.558Z,101849.28
2022-10-18T06:43:43.767Z,101840.75
2022-10-18T06:46:10.754Z,101831.88
2022-10-18T06:48:39.698Z,101825.75
2022-10-18T06:51:08.763Z,101823.44
2022-10-18T06:53:44.018Z,101828.94
2022-10-18T06:56:15.905Z,101830.06
2022-10-18T06:58:42.883Z,101829.06
2022-10-18T07:01:16.384Z,101828.84
2022-10-18T07:03:47.881Z,101831.59
2022-10-18T07:06:18.265Z,101839.47
2022-10-18T07:08:46.710Z,101840.75
2022-10-18T07:11:26.888Z,101848.19
2022-10-18T07:14:00.798Z,101859.97
2022-10-18T07:16:27.900Z,101857.91
2022-10-18T07:18:54.885Z,101868.59
2022-10-18T07:21:26.223Z,101871.72
2022-10-18T07:23:59.660Z,101873.75
2022-10-18T07:26:33.252Z,101887.31
2022-10-18T07:29:11.602Z,101899.44
2022-10-18T07:31:39.255Z,101900.75
2022-10-18T07:34:08.994Z,101896.44
2022-10-18T07:36:36.098Z,101912.00
2022-10-18T07:39:04.074Z,101918.81
2022-10-18T07:41:33.495Z,101920.16
2022-10-18T07:44:03.821Z,101926.41
2022-10-18T07:46:31.182Z,101925.09
2022-10-18T07:48:59.498Z,101929.53
2022-10-18T07:51:29.172Z,101921.88
2022-10-18T07:53:56.265Z,101929.69
2022-10-18T07:56:23.294Z,101931.31
2022-10-18T07:58:57.127Z,101926.44
2022-10-18T08:01:25.482Z,101925.38
2022-10-18T08:03:53.819Z,101921.13
2022-10-18T08:06:32.948Z,101921.28
2022-10-18T08:09:00.098Z,101916.84
2022-10-18T08:11:27.237Z,101917.53
2022-10-18T08:13:54.748Z,101916.06
2022-10-18T08:16:28.859Z,101903.69
2022-10-18T08:18:58.768Z,101900.47
2022-10-18T08:21:26.644Z,101890.56
2022-10-18T08:23:53.914Z,101886.84
2022-10-18T08:26:23.514Z,101893.19
2022-10-18T08:29:10.345Z,101883.69
2022-10-18T08:31:38.348Z,101881.28
2022-10-18T08:34:05.261Z,101885.25
2022-10-18T08:36:32.312Z,101892.09
2022-10-18T08:38:59.376Z,101887.28
2022-10-18T08:41:54.516Z,101878.88
2022-10-18T08:44:28.264Z,101887.75
2022-10-18T08:47:10.441Z,101892.56
2022-10-18T08:49:58.095Z,101885.47
2022-10-18T08:53:05.914Z,101893.41
2022-10-18T08:55:52.566Z,101898.09
2022-10-18T08:58:31.625Z,101903.81
2022-10-18T09:01:32.663Z,101905.56
2022-10-18T09:04:40.750Z,101911.66
2022-10-18T09:07:32.805Z,101912.16
2022-10-18T09:10:37.373Z,101911.03
2022-10-18T09:13:41.524Z,101908.41
2022-10-18T09:16:29.024Z,101897.72
2022-10-18T09:19:42.195Z,101894.88
2022-10-18T09:22:19.191Z,101898.91
2022-10-18T09:25:18.173Z,101896.41
2022-10-18T09:28:10.927Z,101891.88
2022-10-18T09:31:18.535Z,101889.69
2022-10-18T09:34:01.639Z,101898.44
2022-10-18T09:36:37.720Z,101905.06
2022-10-18T09:39:23.662Z,101904.91
2022-10-18T09:42:00.087Z,101907.44
2022-10-18T09:44:44.685Z,101903.75
2022-10-18T09:47:45.410Z,101903.41
2022-10-18T09:50:43.881Z,101894.00
2022-10-18T09:53:50.893Z,101901.91
2022-10-18T09:59:46.785Z,101896.84
2022-10-18T10:02:22.937Z,101896.63
2022-10-18T10:04:52.181Z,101898.00
2022-10-18T10:07:28.612Z,101893.56
2022-10-18T10:10:27.693Z,101903.13
2022-10-18T10:13:17.701Z,101906.72
2022-10-18T10:16:00.250Z,101907.03
2022-10-18T10:18:35.657Z,101904.84
2022-10-18T10:21:13.301Z,101904.91
2022-10-18T10:24:00.982Z,101897.59
2022-10-18T10:26:34.688Z,101900.97
2022-10-18T10:29:01.869Z,101898.00
2022-10-18T10:31:31.818Z,101897.00
2022-10-18T10:34:14.754Z,101895.22
2022-10-18T10:36:54.877Z,101894.13
2022-10-18T10:39:27.116Z,101892.00
2022-10-18T10:42:00.621Z,101889.34
2022-10-18T10:44:36.056Z,101878.28
2022-10-18T10:47:05.526Z,101886.09
2022-10-18T10:49:41.056Z,101891.59
2022-10-18T10:52:27.636Z,101872.44
2022-10-18T10:57:48.578Z,101867.59
2022-10-18T11:00:44.240Z,101857.63
2022-10-18T11:03:34.530Z,101845.91
2022-10-18T11:06:02.121Z,101852.47
2022-10-18T11:08:39.828Z,101867.53
2022-10-18T11:11:28.516Z,101867.16
2022-10-18T11:14:29.635Z,101869.28
2022-10-18T11:17:38.228Z,101861.59
2022-10-18T11:20:10.754Z,101858.72
2022-10-18T11:22:59.960Z,101853.06
2022-10-18T11:25:59.195Z,101861.72
2022-10-18T11:28:36.296Z,101853.44
2022-10-18T11:31:45.286Z,101861.84
2022-10-18T11:35:06.427Z,101857.31
2022-10-18T11:38:15.218Z,101860.69
2022-10-18T11:41:28.141Z,101857.78
2022-10-18T11:44:04.194Z,101856.13
2022-10-18T11:47:18.143Z,101838.03
2022-10-18T11:50:26.154Z,101839.53
2022-10-18T11:53:28.516Z,101833.13
2022-10-18T11:56:19.527Z,101836.13
2022-10-18T11:58:55.176Z,101831.81
2022-10-18T12:01:52.959Z,101835.31
2022-10-18T12:04:28.168Z,101830.75
2022-10-18T12:06:56.502Z,101824.59
2022-10-18T12:09:41.212Z,101836.97
2022-10-18T12:12:27.694Z,101822.88
2022-10-18T12:15:13.230Z,101830.69
2022-10-18T12:17:53.356Z,101830.31
2022-10-18T12:20:39.462Z,101821.84
2022-10-18T12:23:29.942Z,101821.31
2022-10-18T12:26:03.892Z,101821.44
2022-10-18T12:29:31.882Z,101818.00
2022-10-18T12:32:22.241Z,101817.81
2022-10-18T12:35:04.484Z,101820.13
2022-10-18T12:38:08.014Z,101808.94
2022-10-18T12:40:49.578Z,101812.28
2022-10-18T12:43:42.353Z,101804.69
2022-10-18T12:46:13.771Z,101807.78
2022-10-18T12:49:00.500Z,101800.81
2022-10-18T12:51:31.835Z,101804.47
2022-10-18T12:54:11.493Z,101800.94
2022-10-18T12:56:43.703Z,101805.66
2022-10-18T12:59:16.892Z,101806.81
2022-10-18T13:02:22.480Z,101813.50
2022-10-18T13:04:50.180Z,101814.75
2022-10-18T13:07:40.981Z,101806.88
2022-10-18T13:10:11.204Z,101810.28
2022-10-18T13:13:29.531Z,101809.91
2022-10-18T13:16:23.719Z,101804.88
2022-10-18T13:19:18.972Z,101808.69
2022-10-18T13:22:18.933Z,101804.06
2022-10-18T13:25:14.179Z,101803.69
2022-10-18T13:28:08.779Z,101803.19
2022-10-18T13:31:12.011Z,101808.94
2022-10-18T13:33:41.922Z,101811.34
2022-10-18T13:36:22.711Z,101818.53
2022-10-18T13:39:04.784Z,101797.72
2022-10-18T13:41:41.897Z,101801.88
2022-10-18T13:44:40.324Z,101801.88
2022-10-18T13:47:14.581Z,101800.34
2022-10-18T13:53:29.562Z,101796.03
2022-10-18T13:56:08.275Z,101795.00
2022-10-18T13:59:25.131Z,101797.38
2022-10-18T14:02:51.435Z,101799.91
2022-10-18T14:06:19.050Z,101805.31
2022-10-18T14:09:09.349Z,101813.38
2022-10-18T14:12:31.372Z,101825.72
2022-10-18T14:15:26.032Z,101828.38
2022-10-18T14:18:04.885Z,101829.34
2022-10-18T14:21:01.304Z,101832.84
2022-10-18T14:23:41.912Z,101842.09
2022-10-18T14:26:20.900Z,101825.38
2022-10-18T14:29:19.555Z,101835.47
2022-10-18T14:31:54.367Z,101839.16
2022-10-18T14:34:21.851Z,101839.38
2022-10-18T14:36:50.289Z,101842.03
2022-10-18T14:39:26.658Z,101837.81
2022-10-18T14:41:57.130Z,101834.03
2022-10-18T14:44:35.128Z,101843.06
2022-10-18T14:47:14.836Z,101834.34
2022-10-18T14:49:46.448Z,101836.72
2022-10-18T14:52:26.382Z,101841.41
2022-10-18T14:54:57.034Z,101832.25
2022-10-18T14:57:36.159Z,101830.91
2022-10-18T15:00:35.479Z,101833.81
2022-10-18T15:03:21.148Z,101836.25
2022-10-18T15:06:06.013Z,101841.41
2022-10-18T15:08:40.537Z,101842.75
2022-10-18T15:11:11.868Z,101840.88
2022-10-18T15:14:08.802Z,101839.59
2022-10-18T15:16:38.585Z,101834.44
2022-10-18T15:19:34.767Z,101833.75
2022-10-18T15:25:14.848Z,101832.19
2022-10-18T15:27:58.374Z,101837.41
2022-10-18T15:30:31.721Z,101838.25
2022-10-18T15:33:11.978Z,101832.06
2022-10-18T15:35:41.172Z,101832.91
2022-10-18T15:38:33.463Z,101832.69
2022-10-18T15:41:00.832Z,101828.88
2022-10-18T15:43:27.725Z,101835.13
2022-10-18T15:46:05.396Z,101836.56
2022-10-18T15:48:43.400Z,101838.56
2022-10-18T15:51:48.947Z,101836.28
2022-10-18T15:54:29.264Z,101835.69
2022-10-18T15:56:56.750Z,101832.34
2022-10-18T15:59:31.089Z,101837.59
2022-10-18T16:01:58.335Z,101833.28
2022-10-18T16:04:33.060Z,101823.91
2022-10-18T16:07:00.845Z,101836.84
2022-10-18T16:09:29.200Z,101843.34
2022-10-18T16:11:58.095Z,101845.34
2022-10-18T16:14:26.444Z,101840.41
2022-10-18T16:17:02.457Z,101845.31
2022-10-18T16:19:30.981Z,101848.06
2022-10-18T16:22:03.632Z,101850.63
2022-10-18T16:24:33.197Z,101855.28
2022-10-18T16:27:00.136Z,101851.81
2022-10-18T16:29:31.824Z,101854.88
2022-10-18T16:31:59.929Z,101853.72
2022-10-18T16:34:27.377Z,101858.28
2022-10-18T16:36:57.276Z,101864.25
2022-10-18T16:39:25.056Z,101866.06
2022-10-18T16:41:52.610Z,101865.78
2022-10-18T16:44:19.714Z,101871.66
2022-10-18T16:46:51.101Z,101881.25
2022-10-18T16:49:25.021Z,101877.97
2022-10-18T16:51:54.272Z,101873.94
2022-10-18T16:54:21.820Z,101877.75
2022-10-18T16:56:50.125Z,101881.94
2022-10-18T16:59:35.371Z,101885.09
2022-10-18T17:02:06.301Z,101884.16
2022-10-18T17:04:33.270Z,101887.19
2022-10-18T17:07:00.242Z,101880.03
2022-10-18T17:09:28.578Z,101864.81
2022-10-18T17:11:55.594Z,101877.31
2022-10-18T17:14:22.531Z,101875.97
2022-10-18T17:16:53.751Z,101880.91
2022-10-18T17:19:23.248Z,101880.78
2022-10-18T17:21:50.137Z,101880.06
2022-10-18T17:24:17.109Z,101893.53
2022-10-18T17:26:44.300Z,101890.91
2022-10-18T17:29:11.327Z,101881.34
2022-10-18T17:31:38.424Z,101883.22
2022-10-18T17:34:05.406Z,101890.28
2022-10-18T17:36:34.518Z,101887.63
2022-10-18T17:39:01.882Z,101886.72
2022-10-18T17:41:28.986Z,101889.88
2022-10-18T17:43:55.916Z,101896.56
2022-10-18T17:46:23.619Z,101895.22
2022-10-18T17:48:50.617Z,101893.50
2022-10-18T17:51:18.472Z,101892.00
2022-10-18T17:53:45.825Z,101896.00
2022-10-18T17:56:14.584Z,101888.25
2022-10-18T17:58:45.592Z,101891.44
2022-10-18T18:01:20.178Z,101899.16
2022-10-18T18:03:50.599Z,101907.44
2022-10-18T18:06:30.742Z,101904.06
2022-10-18T18:08:59.998Z,101901.28
2022-10-18T18:11:28.982Z,101904.78
2022-10-18T18:13:56.438Z,101902.41
2022-10-18T18:16:28.540Z,101904.69
2022-10-18T18:18:58.231Z,101910.78
2022-10-18T18:21:27.208Z,101915.66
2022-10-18T18:23:55.051Z,101913.31
2022-10-18T18:26:22.644Z,101912.34
2022-10-18T18:28:49.983Z,101916.19
2022-10-18T18:31:26.236Z,101908.59
2022-10-18T18:33:57.286Z,101910.00
2022-10-18T18:36:28.829Z,101913.75
2022-10-18T18:38:57.735Z,101912.47
2022-10-18T18:41:26.742Z,101912.72
2022-10-18T18:44:02.467Z,101912.78
2022-10-18T18:46:36.831Z,101911.56
2022-10-18T18:49:05.266Z,101913.47
2022-10-18T18:51:33.437Z,101915.66
2022-10-18T18:54:00.807Z,101915.66
2022-10-18T18:56:28.938Z,101906.19
2022-10-18T18:58:59.122Z,101914.41
2022-10-18T19:01:38.398Z,101907.09
2022-10-18T19:04:09.152Z,101905.72
2022-10-18T19:06:42.187Z,101908.16
2022-10-18T19:09:19.594Z,101906.06
2022-10-18T19:11:52.817Z,101911.44
2022-10-18T19:16:58.903Z,101910.31
2022-10-18T19:19:30.371Z,101907.41
2022-10-18T19:22:04.897Z,101914.41
2022-10-18T19:24:32.889Z,101916.09
2022-10-18T19:27:05.297Z,101914.38
2022-10-18T19:29:36.547Z,101917.97
2022-10-18T19:32:08.715Z,101928.66
2022-10-18T19:34:35.995Z,101930.34
2022-10-18T19:37:03.894Z,101929.53
2022-10-18T19:39:34.666Z,101926.78
2022-10-18T19:42:06.776Z,101922.72
2022-10-18T19:44:36.221Z,101937.00
2022-10-18T19:47:06.439Z,101928.69
2022-10-18T19:49:33.421Z,101933.44
2022-10-18T19:52:00.370Z,101933.44
2022-10-18T19:54:27.654Z,101937.53
2022-10-18T19:56:54.824Z,101934.66
2022-10-18T19:59:22.858Z,101942.78
2022-10-18T20:01:50.352Z,101944.50
2022-10-18T20:04:17.666Z,101944.56
2022-10-18T20:06:44.817Z,101955.09
2022-10-18T20:09:16.259Z,101953.63
2022-10-18T20:11:46.545Z,101958.88
2022-10-18T20:14:13.500Z,101956.34
2022-10-18T20:16:40.680Z,101956.13
2022-10-18T20:19:09.474Z,101958.22
2022-10-18T20:21:36.889Z,101960.56
2022-10-18T20:24:06.155Z,101962.75
2022-10-18T20:26:34.491Z,101961.81
2022-10-18T20:29:01.559Z,101966.72
2022-10-18T20:31:32.228Z,101968.97
2022-10-18T20:34:04.489Z,101961.66
2022-10-18T20:36:33.391Z,101955.53
2022-10-18T20:39:01.413Z,101959.25
2022-10-18T20:41:40.925Z,101961.75
2022-10-18T20:44:16.741Z,101960.56
2022-10-18T20:46:44.298Z,101966.34
2022-10-18T20:49:16.185Z,101966.94
2022-10-18T20:51:43.472Z,101954.63
2022-10-18T20:54:13.125Z,101958.31
2022-10-18T20:56:40.316Z,101957.00
2022-10-18T20:59:09.682Z,101967.09
2022-10-18T21:01:38.705Z,101965.06
2022-10-18T21:04:09.131Z,101962.97
2022-10-18T21:06:45.183Z,101961.22
2022-10-18T21:09:18.013Z,101951.09
2022-10-18T21:11:50.112Z,101952.66
2022-10-18T21:14:22.900Z,101954.13
2022-10-18T21:16:51.896Z,101950.28
2022-10-18T21:19:26.396Z,101955.78
2022-10-18T21:21:57.139Z,101954.28
2022-10-18T21:24:26.105Z,101951.66
2022-10-18T21:26:53.526Z,101949.81
2022-10-18T21:29:22.623Z,101949.91
2022-10-18T21:31:53.518Z,101956.59
2022-10-18T21:34:20.782Z,101954.06
2022-10-18T21:36:48.684Z,101962.53
2022-10-18T21:39:21.559Z,101953.00
2022-10-18T21:41:49.381Z,101951.13
2022-10-18T21:44:17.435Z,101948.38
2022-10-18T21:46:45.082Z,101953.13
2022-10-18T21:49:13.565Z,101947.97
2022-10-18T21:51:41.613Z,101948.47
2022-10-18T21:54:15.237Z,101951.34
2022-10-18T21:56:42.919Z,101943.44
2022-10-18T21:59:12.783Z,101941.50
2022-10-18T22:01:40.555Z,101949.47
2022-10-18T22:04:24.587Z,101948.59
2022-10-18T22:06:52.250Z,101947.63
2022-10-18T22:09:21.107Z,101951.00
2022-10-18T22:11:53.470Z,101948.69
2022-10-18T22:14:21.711Z,101945.94
2022-10-18T22:16:48.721Z,101950.19
2022-10-18T22:19:15.670Z,101941.63
2022-10-18T22:21:42.572Z,101943.03
2022-10-18T22:24:10.510Z,101942.03
2022-10-18T22:26:41.693Z,101938.53
2022-10-18T22:29:14.988Z,101932.84
2022-10-18T22:31:49.543Z,101931.47
2022-10-18T22:34:21.073Z,101928.16
2022-10-18T22:36:48.047Z,101930.38
2022-10-18T22:39:16.852Z,101927.28
2022-10-18T22:41:44.354Z,101927.97
2022-10-18T22:44:13.959Z,101920.66
2022-10-18T22:46:42.208Z,101920.59
2022-10-18T22:49:09.527Z,101915.03
2022-10-18T22:51:36.473Z,101913.81
2022-10-18T22:54:03.525Z,101913.00
2022-10-18T22:56:30.489Z,101912.25
2022-10-18T22:58:57.466Z,101908.16
2022-10-18T23:01:25.164Z,101905.97
2022-10-18T23:03:59.011Z,101914.69
2022-10-18T23:06:32.825Z,101914.75
2022-10-18T23:09:06.980Z,101919.88
2022-10-18T23:11:35.697Z,101924.91
2022-10-18T23:14:05.153Z,101921.75
2022-10-18T23:16:32.438Z,101922.47
2022-10-18T23:18:59.778Z,101924.91
2022-10-18T23:21:28.491Z,101917.22
2022-10-18T23:23:57.039Z,101918.03
2022-10-18T23:26:27.519Z,101921.16
2022-10-18T23:28:55.830Z,101922.91
2022-10-18T23:31:31.740Z,101919.41
2022-10-18T23:34:04.685Z,101918.94
2022-10-18T23:36:33.841Z,101923.19
2022-10-18T23:39:01.584Z,101917.88
2022-10-18T23:41:28.632Z,101913.66
2022-10-18T23:43:55.917Z,101909.84
2022-10-18T23:46:23.026Z,101910.09
2022-10-18T23:48:50.446Z,101914.50
2022-10-18T23:51:18.256Z,101905.63
2022-10-18T23:53:45.306Z,101914.06
2022-10-18T23:56:16.212Z,101919.84
2022-10-18T23:58:45.503Z,101902.72
